createdAt,value
2022-11-08T00:02:16.744Z,100377.13
2022-11-08T00:04:43.210Z,100379.91
2022-11-08T00:07:30.135Z,100388.59
2022-11-08T00:10:15.111Z,100381.78
2022-11-08T00:12:59.748Z,100381.94
2022-11-08T00:15:26.111Z,100387.41
2022-11-08T00:17:52.669Z,100385.53
2022-11-08T00:20:19.081Z,100386.97
2022-11-08T00:22:45.434Z,100387.97
2022-11-08T00:25:11.822Z,100383.56
2022-11-08T00:27:38.198Z,100381.69
2022-11-08T00:30:05.136Z,100383.06
2022-11-08T00:32:31.503Z,100384.50
2022-11-08T00:34:57.865Z,100381.63
2022-11-08T00:37:24.284Z,100381.84
2022-11-08T00:39:50.718Z,100386.06
2022-11-08T00:42:17.087Z,100382.97
2022-11-08T00:44:43.476Z,100376.06
2022-11-08T00:47:10.067Z,100373.91
2022-11-08T00:49:36.539Z,100375.13
2022-11-08T00:52:03.071Z,100371.56
2022-11-08T00:54:29.477Z,100373.63
2022-11-08T00:56:55.856Z,100378.50
2022-11-08T00:59:22.269Z,100368.53
2022-11-08T01:01:48.753Z,100366.13
2022-11-08T01:04:17.854Z,100369.22
2022-11-08T01:06:44.741Z,100373.13
2022-11-08T01:09:11.363Z,100374.16
2022-11-08T01:11:38.847Z,100372.00
2022-11-08T01:14:05.283Z,100373.53
2022-11-08T01:16:32.917Z,100374.81
2022-11-08T01:18:59.962Z,100364.78
2022-11-08T01:21:26.735Z,100369.09
2022-11-08T01:23:54.357Z,100364.63
2022-11-08T01:26:23.792Z,100361.44
2022-11-08T01:28:50.182Z,100356.44
2022-11-08T01:31:21.986Z,100360.22
2022-11-08T01:33:51.603Z,100355.56
2022-11-08T01:36:20.981Z,100351.63
2022-11-08T01:38:47.624Z,100352.59
2022-11-08T01:41:15.593Z,100352.78
2022-11-08T01:43:56.166Z,100351.09
2022-11-08T01:46:30.893Z,100348.03
2022-11-08T01:49:09.451Z,100344.34
2022-11-08T01:51:44.963Z,100340.06
2022-11-08T01:54:14.976Z,100341.25
2022-11-08T01:56:42.051Z,100337.28
2022-11-08T01:59:10.026Z,100341.25
2022-11-08T02:01:36.849Z,100340.16
2022-11-08T02:04:04.137Z,100339.06
2022-11-08T02:06:31.616Z,100333.69
2022-11-08T02:09:01.405Z,100330.47
2022-11-08T02:11:28.421Z,100337.09
2022-11-08T02:13:55.033Z,100333.53
2022-11-08T02:16:21.402Z,100338.28
2022-11-08T02:18:48.099Z,100333.47
2022-11-08T02:21:24.747Z,100334.69
2022-11-08T02:23:52.094Z,100335.97
2022-11-08T02:26:22.245Z,100330.34
2022-11-08T02:28:49.359Z,100330.75
2022-11-08T02:31:17.879Z,100325.31
2022-11-08T02:33:45.273Z,100321.47
2022-11-08T02:36:17.797Z,100314.75
2022-11-08T02:38:51.804Z,100303.44
2022-11-08T02:41:18.412Z,100301.84
2022-11-08T02:43:44.780Z,100298.25
2022-11-08T02:46:11.182Z,100297.91
2022-11-08T02:48:37.558Z,100294.84
2022-11-08T02:51:03.940Z,100289.41
2022-11-08T02:53:30.343Z,100286.59
2022-11-08T02:55:56.724Z,100292.97
2022-11-08T02:58:23.508Z,100284.63
2022-11-08T03:00:49.866Z,100292.09
2022-11-08T03:03:16.233Z,100285.09
2022-11-08T03:05:43.295Z,100282.03
2022-11-08T03:08:09.670Z,100290.38
2022-11-08T03:10:36.076Z,100284.91
2022-11-08T03:13:04.352Z,100280.69
2022-11-08T03:15:31.205Z,100268.50
2022-11-08T03:17:58.446Z,100274.34
2022-11-08T03:20:29.613Z,100275.50
2022-11-08T03:23:03.748Z,100262.00
2022-11-08T03:25:30.370Z,100259.84
2022-11-08T03:28:01.483Z,100252.69
2022-11-08T03:30:27.882Z,100259.03
2022-11-08T03:32:54.244Z,100258.06
2022-11-08T03:35:20.620Z,100254.03
2022-11-08T03:37:53.212Z,100248.50
2022-11-08T03:40:20.039Z,100250.09
2022-11-08T03:42:46.701Z,100256.19
2022-11-08T03:45:13.520Z,100242.69
2022-11-08T03:47:41.994Z,100243.94
2022-11-08T03:50:09.060Z,100246.75
2022-11-08T03:52:42.189Z,100246.41
2022-11-08T03:55:10.407Z,100240.22
2022-11-08T03:57:37.810Z,100235.41
2022-11-08T04:00:05.600Z,100231.28
2022-11-08T04:02:32.067Z,100233.63
2022-11-08T04:04:58.562Z,100222.84
2022-11-08T04:07:24.923Z,100231.06
2022-11-08T04:09:51.271Z,100230.94
2022-11-08T04:12:36.390Z,100228.59
2022-11-08T04:15:18.777Z,100223.00
2022-11-08T04:18:10.355Z,100219.75
2022-11-08T04:20:59.847Z,100225.22
2022-11-08T04:23:27.039Z,100220.81
2022-11-08T04:26:01.210Z,100218.69
2022-11-08T04:28:29.901Z,100230.00
2022-11-08T04:30:57.850Z,100224.50
2022-11-08T04:33:24.782Z,100222.53
2022-11-08T04:35:51.574Z,100214.94
2022-11-08T04:38:18.548Z,100219.38
2022-11-08T04:40:45.620Z,100210.09
2022-11-08T04:43:12.539Z,100216.38
2022-11-08T04:45:39.446Z,100216.72
2022-11-08T04:48:06.088Z,100212.44
2022-11-08T04:50:32.448Z,100215.38
2022-11-08T04:52:58.819Z,100209.09
2022-11-08T04:55:25.206Z,100200.25
2022-11-08T04:57:51.588Z,100204.91
2022-11-08T05:00:18.206Z,100201.31
2022-11-08T05:02:44.877Z,100188.81
2022-11-08T05:05:11.349Z,100188.09
2022-11-08T05:07:37.767Z,100188.97
2022-11-08T05:10:04.689Z,100177.00
2022-11-08T05:12:31.125Z,100176.84
2022-11-08T05:14:57.513Z,100179.94
2022-11-08T05:17:23.931Z,100182.72
2022-11-08T05:20:08.955Z,100182.69
2022-11-08T05:22:53.687Z,100182.88
2022-11-08T05:25:20.130Z,100175.19
2022-11-08T05:27:46.454Z,100166.50
2022-11-08T05:30:12.848Z,100161.03
2022-11-08T05:32:39.198Z,100167.31
2022-11-08T05:35:06.089Z,100155.75
2022-11-08T05:37:32.451Z,100137.22
2022-11-08T05:39:58.817Z,100125.75
2022-11-08T05:42:25.179Z,100129.22
2022-11-08T05:44:51.573Z,100127.97
2022-11-08T05:47:18.130Z,100128.50
2022-11-08T05:49:44.526Z,100130.31
2022-11-08T05:52:10.875Z,100120.03
2022-11-08T05:54:37.210Z,100127.09
2022-11-08T05:57:03.596Z,100121.03
2022-11-08T05:59:29.932Z,100123.09
2022-11-08T06:01:56.380Z,100119.31
2022-11-08T06:04:22.806Z,100125.91
2022-11-08T06:06:50.161Z,100115.56
2022-11-08T06:09:16.509Z,100102.69
2022-11-08T06:11:42.862Z,100100.72
2022-11-08T06:14:09.206Z,100102.06
2022-11-08T06:16:35.573Z,100093.22
2022-11-08T06:19:01.927Z,100101.34
2022-11-08T06:21:28.488Z,100099.75
2022-11-08T06:23:55.015Z,100090.66
2022-11-08T06:26:23.033Z,100093.94
2022-11-08T06:28:49.618Z,100095.75
2022-11-08T06:31:15.966Z,100078.09
2022-11-08T06:33:42.573Z,100071.88
2022-11-08T06:36:09.005Z,100061.59
2022-11-08T06:38:35.375Z,100066.22
2022-11-08T06:41:01.904Z,100056.22
2022-11-08T06:43:28.560Z,100052.53
2022-11-08T06:45:55.721Z,100039.50
2022-11-08T06:48:22.088Z,100038.97
2022-11-08T06:50:48.696Z,100038.41
2022-11-08T06:53:15.399Z,100029.94
2022-11-08T06:55:41.967Z,100038.88
2022-11-08T06:58:08.406Z,100038.06
2022-11-08T07:00:34.806Z,100031.88
2022-11-08T07:03:03.441Z,100034.84
2022-11-08T07:05:31.485Z,100036.97
2022-11-08T07:07:58.557Z,100037.88
2022-11-08T07:10:27.295Z,100036.63
2022-11-08T07:13:04.560Z,100029.13
2022-11-08T07:15:32.025Z,100033.06
2022-11-08T07:18:07.374Z,100024.00
2022-11-08T07:20:33.863Z,100022.38
2022-11-08T07:23:00.249Z,100030.66
2022-11-08T07:25:27.274Z,100022.97
2022-11-08T07:27:58.294Z,100030.63
2022-11-08T07:30:25.018Z,100028.47
2022-11-08T07:32:51.494Z,100035.41
2022-11-08T07:35:18.154Z,100035.25
2022-11-08T07:37:44.951Z,100033.75
2022-11-08T07:40:11.822Z,100033.47
2022-11-08T07:43:05.148Z,100038.88
2022-11-08T07:45:25.542Z,100044.06
2022-11-08T07:48:09.505Z,100038.31
2022-11-08T07:50:37.407Z,100040.97
2022-11-08T07:53:03.830Z,100042.50
2022-11-08T07:55:30.213Z,100038.72
2022-11-08T07:58:03.066Z,100033.97
2022-11-08T08:00:30.434Z,100027.72
2022-11-08T08:02:58.362Z,100036.69
2022-11-08T08:05:26.257Z,100024.03
2022-11-08T08:07:52.663Z,100028.13
2022-11-08T08:10:19.019Z,100033.50
2022-11-08T08:12:46.183Z,100035.00
2022-11-08T08:15:12.564Z,100032.25
2022-11-08T08:17:38.984Z,100016.88
2022-11-08T08:20:05.895Z,100018.06
2022-11-08T08:22:32.383Z,100019.44
2022-11-08T08:25:02.867Z,100020.75
2022-11-08T08:27:29.910Z,100017.78
2022-11-08T08:29:56.340Z,100017.47
2022-11-08T08:32:22.695Z,100009.25
2022-11-08T08:34:49.068Z,100014.16
2022-11-08T08:37:16.801Z,100016.22
2022-11-08T08:39:43.204Z,100022.59
2022-11-08T08:42:09.610Z,100015.78
2022-11-08T08:44:36.047Z,100018.22
2022-11-08T08:47:02.400Z,100020.88
2022-11-08T08:49:28.835Z,100011.88
2022-11-08T08:51:55.228Z,100014.81
2022-11-08T08:54:25.602Z,100006.56
2022-11-08T08:56:54.701Z,100006.06
2022-11-08T09:02:08.973Z,100007.19
2022-11-08T09:04:35.914Z,100010.50
2022-11-08T09:07:02.475Z,100014.69
2022-11-08T09:09:28.896Z,100000.84
2022-11-08T09:11:55.277Z,99994.41
2022-11-08T09:14:21.658Z,99991.38
2022-11-08T09:16:48.029Z,99990.16
2022-11-08T09:19:14.395Z,99984.78
2022-11-08T09:21:40.818Z,99985.88
2022-11-08T09:24:07.403Z,99983.34
2022-11-08T09:26:33.798Z,99978.81
2022-11-08T09:29:00.623Z,99978.03
2022-11-08T09:31:27.114Z,99985.97
2022-11-08T09:33:53.609Z,99975.41
2022-11-08T09:36:19.998Z,99985.53
2022-11-08T09:38:46.384Z,99987.31
2022-11-08T09:41:18.860Z,100000.41
2022-11-08T09:43:57.216Z,99993.91
2022-11-08T09:46:36.446Z,99996.28
2022-11-08T09:49:03.480Z,100002.50
2022-11-08T09:51:31.557Z,99998.72
2022-11-08T09:53:59.008Z,99996.53
2022-11-08T09:56:30.180Z,100000.53
2022-11-08T09:59:05.743Z,99996.78
2022-11-08T10:01:34.134Z,100003.53
2022-11-08T10:04:07.328Z,100000.63
2022-11-08T10:06:42.919Z,99998.53
2022-11-08T10:10:07.961Z,100004.09
2022-11-08T10:13:06.609Z,99999.25
2022-11-08T10:15:51.096Z,99990.81
2022-11-08T10:18:29.662Z,99990.03
2022-11-08T10:21:15.725Z,99993.50
2022-11-08T10:23:44.922Z,99997.16
2022-11-08T10:26:13.308Z,99987.69
2022-11-08T10:28:50.435Z,99987.34
2022-11-08T10:31:19.058Z,99978.66
2022-11-08T10:33:54.211Z,99987.22
2022-11-08T10:36:29.096Z,99982.16
2022-11-08T10:39:01.088Z,99971.25
2022-11-08T10:41:53.631Z,99964.41
2022-11-08T10:44:21.001Z,99960.38
2022-11-08T10:46:53.706Z,99959.88
2022-11-08T10:49:40.951Z,99958.19
2022-11-08T10:52:34.728Z,99952.50
2022-11-08T10:55:01.724Z,99944.84
2022-11-08T10:57:27.959Z,99934.94
2022-11-08T10:59:55.209Z,99933.03
2022-11-08T11:02:23.154Z,99932.50
2022-11-08T11:04:50.238Z,99934.19
2022-11-08T11:07:31.102Z,99932.09
2022-11-08T11:09:57.503Z,99931.38
2022-11-08T11:12:23.901Z,99936.19
2022-11-08T11:14:58.686Z,99939.50
2022-11-08T11:17:32.854Z,99951.63
2022-11-08T11:20:02.077Z,99951.88
2022-11-08T11:22:32.453Z,99950.09
2022-11-08T11:25:06.287Z,99955.19
2022-11-08T11:27:36.407Z,99950.84
2022-11-08T11:30:30.423Z,99939.25
2022-11-08T11:33:06.790Z,99928.47
2022-11-08T11:35:46.763Z,99937.50
2022-11-08T11:38:54.048Z,99905.97
2022-11-08T11:41:32.621Z,99903.84
2022-11-08T11:44:13.900Z,99894.38
2022-11-08T11:46:50.908Z,99915.59
2022-11-08T11:49:20.764Z,99904.41
2022-11-08T11:51:47.250Z,99910.06
2022-11-08T11:54:15.441Z,99913.91
2022-11-08T11:56:57.136Z,99912.97
2022-11-08T11:59:32.472Z,99923.50
2022-11-08T12:02:36.334Z,99919.72
2022-11-08T12:05:29.866Z,99916.78
2022-11-08T12:08:22.359Z,99900.88
2022-11-08T12:10:51.605Z,99900.03
2022-11-08T12:13:26.053Z,99891.78
2022-11-08T12:16:14.896Z,99894.47
2022-11-08T12:19:06.005Z,99909.19
2022-11-08T12:21:48.469Z,99907.09
2022-11-08T12:24:35.934Z,99914.16
2022-11-08T12:27:20.897Z,99898.25
2022-11-08T12:29:56.969Z,99903.66
2022-11-08T12:32:49.488Z,99892.94
2022-11-08T12:35:24.840Z,99894.09
2022-11-08T12:38:09.966Z,99899.22
2022-11-08T12:40:45.443Z,99897.97
2022-11-08T12:43:30.738Z,99896.03
2022-11-08T12:46:13.109Z,99892.50
2022-11-08T12:48:58.276Z,99893.88
2022-11-08T12:51:33.550Z,99898.47
2022-11-08T12:54:22.982Z,99894.56
2022-11-08T12:56:51.101Z,99893.13
2022-11-08T12:59:54.364Z,99893.19
2022-11-08T13:02:23.336Z,99906.09
2022-11-08T13:05:10.469Z,99908.22
2022-11-08T13:07:45.196Z,99921.78
2022-11-08T13:10:30.362Z,99923.66
2022-11-08T13:13:07.106Z,99929.03
2022-11-08T13:15:33.676Z,99922.66
2022-11-08T13:18:06.046Z,99916.44
2022-11-08T13:20:45.936Z,99910.31
2022-11-08T13:23:14.433Z,99911.28
2022-11-08T13:25:42.799Z,99907.94
2022-11-08T13:28:36.335Z,99930.16
2022-11-08T13:31:12.688Z,99921.13
2022-11-08T13:33:43.504Z,99926.81
2022-11-08T13:36:34.517Z,99921.19
2022-11-08T13:39:21.017Z,99902.91
2022-11-08T13:42:24.904Z,99886.22
2022-11-08T13:44:54.159Z,99886.31
2022-11-08T13:47:32.803Z,99882.22
2022-11-08T13:50:37.632Z,99881.88
2022-11-08T13:53:11.035Z,99869.31
2022-11-08T13:55:51.064Z,99860.41
2022-11-08T13:58:32.670Z,99863.34
2022-11-08T14:00:59.683Z,99856.44
2022-11-08T14:03:32.292Z,99866.56
2022-11-08T14:06:37.696Z,99861.69
2022-11-08T14:09:35.337Z,99853.66
2022-11-08T14:12:10.714Z,99861.06
2022-11-08T14:14:56.378Z,99861.50
2022-11-08T14:17:51.803Z,99866.47
2022-11-08T14:20:32.167Z,99866.31
2022-11-08T14:23:09.448Z,99875.09
2022-11-08T14:25:36.342Z,99879.97
2022-11-08T14:28:02.731Z,99885.41
2022-11-08T14:30:29.215Z,99852.88
2022-11-08T14:33:18.998Z,99841.94
2022-11-08T14:36:15.654Z,99845.53
2022-11-08T14:38:52.600Z,99839.66
2022-11-08T14:41:24.875Z,99844.88
2022-11-08T14:43:52.018Z,99845.31
2022-11-08T14:46:30.652Z,99844.16
2022-11-08T14:48:58.051Z,99847.09
2022-11-08T14:51:25.748Z,99858.03
2022-11-08T14:53:54.160Z,99852.69
2022-11-08T14:56:28.919Z,99858.50
2022-11-08T14:58:55.688Z,99857.53
2022-11-08T15:01:26.677Z,99863.06
2022-11-08T15:03:56.029Z,99851.09
2022-11-08T15:06:30.681Z,99857.84
2022-11-08T15:08:57.344Z,99855.13
2022-11-08T15:11:28.497Z,99851.13
2022-11-08T15:14:01.880Z,99842.59
2022-11-08T15:16:46.534Z,99845.88
2022-11-08T15:19:31.278Z,99847.59
2022-11-08T15:22:00.057Z,99854.56
2022-11-08T15:24:36.901Z,99854.09
2022-11-08T15:27:12.512Z,99857.59
2022-11-08T15:30:07.035Z,99854.69
2022-11-08T15:32:35.734Z,99857.22
2022-11-08T15:35:02.568Z,99854.63
2022-11-08T15:37:35.048Z,99850.88
2022-11-08T15:40:04.471Z,99846.41
2022-11-08T15:42:32.422Z,99844.78
2022-11-08T15:45:25.539Z,99848.72
2022-11-08T15:47:53.184Z,99841.03
2022-11-08T15:50:19.481Z,99839.03
2022-11-08T15:52:48.576Z,99843.50
2022-11-08T15:55:18.347Z,99832.56
2022-11-08T15:57:46.567Z,99825.00
2022-11-08T16:00:15.562Z,99829.03
2022-11-08T16:02:42.230Z,99832.00
2022-11-08T16:05:31.186Z,99829.25
2022-11-08T16:07:58.227Z,99825.59
2022-11-08T16:10:35.156Z,99828.00
2022-11-08T16:13:02.939Z,99824.03
2022-11-08T16:15:32.050Z,99829.13
2022-11-08T16:17:59.263Z,99833.25
2022-11-08T16:20:30.124Z,99804.75
2022-11-08T16:22:58.029Z,99802.97
2022-11-08T16:25:26.158Z,99812.75
2022-11-08T16:27:57.668Z,99803.44
2022-11-08T16:30:24.096Z,99815.16
2022-11-08T16:32:50.705Z,99815.41
2022-11-08T16:35:17.325Z,99806.38
2022-11-08T16:37:44.741Z,99810.56
2022-11-08T16:40:22.847Z,99801.50
2022-11-08T16:42:51.615Z,99807.59
2022-11-08T16:45:37.268Z,99808.91
2022-11-08T16:48:07.512Z,99812.47
2022-11-08T16:50:33.879Z,99815.44
2022-11-08T16:53:00.254Z,99812.25
2022-11-08T16:55:26.662Z,99807.09
2022-11-08T16:57:53.040Z,99812.25
2022-11-08T17:00:19.953Z,99821.09
2022-11-08T17:02:53.103Z,99807.84
2022-11-08T17:05:22.752Z,99824.81
2022-11-08T17:07:53.199Z,99824.09
2022-11-08T17:10:25.299Z,99813.88
2022-11-08T17:12:51.976Z,99813.50
2022-11-08T17:15:23.956Z,99814.38
2022-11-08T17:17:51.328Z,99820.47
2022-11-08T17:20:19.877Z,99821.47
2022-11-08T17:22:46.879Z,99823.31
2022-11-08T17:25:18.642Z,99822.19
2022-11-08T17:27:45.406Z,99826.53
2022-11-08T17:30:14.384Z,99820.06
2022-11-08T17:32:41.301Z,99822.09
2022-11-08T17:35:09.317Z,99816.75
2022-11-08T17:37:35.710Z,99838.44
2022-11-08T17:40:03.589Z,99840.34
2022-11-08T17:42:34.268Z,99837.72
2022-11-08T17:45:03.919Z,99852.88
2022-11-08T17:47:30.293Z,99845.75
2022-11-08T17:49:56.703Z,99840.09
2022-11-08T17:52:23.533Z,99851.13
2022-11-08T17:54:52.981Z,99842.56
2022-11-08T17:57:19.634Z,99849.25
2022-11-08T17:59:48.088Z,99854.56
2022-11-08T18:02:15.106Z,99843.84
2022-11-08T18:04:41.584Z,99837.63
2022-11-08T18:07:08.242Z,99813.31
2022-11-08T18:09:34.703Z,99836.47
2022-11-08T18:12:01.075Z,99825.34
2022-11-08T18:14:28.986Z,99827.22
2022-11-08T18:16:55.935Z,99810.78
2022-11-08T18:19:22.664Z,99823.50
2022-11-08T18:21:49.047Z,99817.69
2022-11-08T18:24:15.732Z,99816.16
2022-11-08T18:26:42.129Z,99821.09
2022-11-08T18:29:08.528Z,99821.97
2022-11-08T18:31:34.939Z,99826.91
2022-11-08T18:34:01.300Z,99822.56
2022-11-08T18:36:29.747Z,99837.75
2022-11-08T18:38:58.682Z,99840.00
2022-11-08T18:41:27.985Z,99826.13
2022-11-08T18:43:55.851Z,99840.75
2022-11-08T18:46:23.753Z,99832.75
2022-11-08T18:48:50.987Z,99831.06
2022-11-08T18:51:19.239Z,99835.16
2022-11-08T18:53:45.627Z,99833.19
2022-11-08T18:56:12.689Z,99831.25
2022-11-08T18:58:39.673Z,99832.16
2022-11-08T19:01:06.397Z,99825.22
2022-11-08T19:03:33.269Z,99819.38
2022-11-08T19:05:59.644Z,99818.41
2022-11-08T19:08:27.270Z,99811.81
2022-11-08T19:10:56.061Z,99811.19
2022-11-08T19:13:23.779Z,99816.41
2022-11-08T19:16:00.864Z,99821.44
2022-11-08T19:18:28.369Z,99823.41
2022-11-08T19:21:08.288Z,99815.44
2022-11-08T19:23:35.043Z,99812.72
2022-11-08T19:26:03.793Z,99823.16
2022-11-08T19:28:35.618Z,99823.38
2022-11-08T19:31:02.166Z,99837.16
2022-11-08T19:33:30.079Z,99827.00
2022-11-08T19:36:01.088Z,99830.53
2022-11-08T19:38:27.840Z,99837.03
2022-11-08T19:40:54.198Z,99824.72
2022-11-08T19:43:20.866Z,99827.47
2022-11-08T19:45:52.509Z,99835.75
2022-11-08T19:48:19.298Z,99837.88
2022-11-08T19:50:46.102Z,99837.97
2022-11-08T19:53:12.572Z,99841.69
2022-11-08T19:55:38.938Z,99846.47
2022-11-08T19:58:05.494Z,99837.03
2022-11-08T20:00:33.068Z,99848.59
2022-11-08T20:02:59.464Z,99847.59
2022-11-08T20:05:26.690Z,99850.13
2022-11-08T20:07:53.062Z,99849.50
2022-11-08T20:10:19.470Z,99850.97
2022-11-08T20:12:45.822Z,99853.09
2022-11-08T20:15:12.192Z,99844.75
2022-11-08T20:17:38.578Z,99858.50
2022-11-08T20:20:05.610Z,99848.13
2022-11-08T20:22:31.963Z,99854.72
2022-11-08T20:24:58.321Z,99851.94
2022-11-08T20:27:24.722Z,99843.38
2022-11-08T20:29:52.402Z,99851.19
2022-11-08T20:32:18.808Z,99848.47
2022-11-08T20:34:46.080Z,99848.41
2022-11-08T20:37:14.421Z,99855.50
2022-11-08T20:39:41.085Z,99856.91
2022-11-08T20:42:07.439Z,99862.75
2022-11-08T20:44:33.810Z,99858.44
2022-11-08T20:47:05.486Z,99858.84
2022-11-08T20:49:32.853Z,99860.88
2022-11-08T20:51:59.294Z,99867.06
2022-11-08T20:54:25.690Z,99861.47
2022-11-08T20:56:52.123Z,99858.09
2022-11-08T20:59:18.663Z,99858.59
2022-11-08T21:01:45.327Z,99866.63
2022-11-08T21:04:12.135Z,99867.50
2022-11-08T21:06:39.044Z,99852.69
2022-11-08T21:11:53.016Z,99860.97
2022-11-08T21:14:19.468Z,99861.56
2022-11-08T21:17:14.615Z,99852.56
2022-11-08T21:19:32.489Z,99864.91
2022-11-08T21:22:14.920Z,99854.56
2022-11-08T21:24:42.047Z,99860.03
2022-11-08T21:27:08.628Z,99862.41
2022-11-08T21:29:35.066Z,99864.53
2022-11-08T21:32:01.537Z,99862.28
2022-11-08T21:34:32.496Z,99870.28
2022-11-08T21:36:59.688Z,99869.56
2022-11-08T21:39:26.199Z,99873.81
2022-11-08T21:41:52.627Z,99867.06
2022-11-08T21:44:19.742Z,99858.38
2022-11-08T21:46:46.223Z,99860.88
2022-11-08T21:49:13.229Z,99874.72
2022-11-08T21:51:39.660Z,99881.75
2022-11-08T21:54:06.543Z,99876.78
2022-11-08T21:56:34.580Z,99876.63
2022-11-08T21:59:01.843Z,99887.06
2022-11-08T22:01:30.526Z,99887.00
2022-11-08T22:04:00.720Z,99893.59
2022-11-08T22:06:28.171Z,99893.75
2022-11-08T22:08:54.666Z,99883.91
2022-11-08T22:11:21.078Z,99891.56
2022-11-08T22:13:47.438Z,99882.78
2022-11-08T22:16:13.888Z,99890.38
2022-11-08T22:19:03.469Z,99892.06
2022-11-08T22:21:38.863Z,99891.69
2022-11-08T22:24:11.184Z,99882.88
2022-11-08T22:26:37.877Z,99888.53
2022-11-08T22:29:04.369Z,99887.06
2022-11-08T22:31:30.994Z,99891.06
2022-11-08T22:33:57.375Z,99881.41
2022-11-08T22:36:23.840Z,99896.53
2022-11-08T22:38:50.254Z,99885.91
2022-11-08T22:41:18.599Z,99884.88
2022-11-08T22:43:45.455Z,99897.22
2022-11-08T22:46:12.355Z,99892.22
2022-11-08T22:48:39.246Z,99886.84
2022-11-08T22:51:05.753Z,99889.28
2022-11-08T22:53:32.276Z,99884.94
2022-11-08T22:56:00.769Z,99878.59
2022-11-08T22:58:28.274Z,99883.75
2022-11-08T23:00:54.775Z,99873.53
2022-11-08T23:03:21.526Z,99878.97
2022-11-08T23:05:51.854Z,99876.63
2022-11-08T23:08:19.147Z,99884.06
2022-11-08T23:11:05.164Z,99884.94
2022-11-08T23:13:50.174Z,99897.06
2022-11-08T23:16:31.830Z,99890.38
2022-11-08T23:19:22.983Z,99886.09
2022-11-08T23:22:08.059Z,99893.91
2022-11-08T23:24:34.425Z,99894.34
2022-11-08T23:27:20.544Z,99892.66
2022-11-08T23:30:05.478Z,99892.34
2022-11-08T23:32:32.498Z,99879.19
2022-11-08T23:34:58.882Z,99882.13
2022-11-08T23:37:25.940Z,99880.22
2022-11-08T23:40:10.919Z,99886.28
2022-11-08T23:42:55.959Z,99881.38
2022-11-08T23:45:22.366Z,99893.09
2022-11-08T23:47:48.817Z,99894.56
2022-11-08T23:50:15.195Z,99887.06
2022-11-08T23:52:41.568Z,99887.88
2022-11-08T23:55:08.403Z,99888.00
2022-11-08T23:57:34.761Z,99889.91
